sensor_id;sensor_type;location;lat;lon;timestamp;P1;durP1;ratioP1;P2;durP2;ratioP2
50757;SDS011;36732;47.980;11.652;2023-04-15T00:01:23;3.22;;;1.27;;
50757;SDS011;36732;47.980;11.652;2023-04-15T00:03:50;2.97;;;1.38;;
50757;SDS011;36732;47.980;11.652;2023-04-15T00:06:18;2.58;;;1.38;;
50757;SDS011;36732;47.980;11.652;2023-04-15T00:08:47;2.25;;;1.17;;
50757;SDS011;36732;47.980;11.652;2023-04-15T00:11:14;2.90;;;1.52;;
50757;SDS011;36732;47.980;11.652;2023-04-15T00:13:42;2.50;;;1.42;;
50757;SDS011;36732;47.980;11.652;2023-04-15T00:16:08;2.13;;;1.23;;
50757;SDS011;36732;47.980;11.652;2023-04-15T00:18:34;2.33;;;1.13;;
50757;SDS011;36732;47.980;11.652;2023-04-15T00:21:01;2.38;;;1.30;;
50757;SDS011;36732;47.980;11.652;2023-04-15T00:23:28;2.47;;;1.90;;
50757;SDS011;36732;47.980;11.652;2023-04-15T00:25:54;1.73;;;1.30;;
50757;SDS011;36732;47.980;11.652;2023-04-15T00:28:20;3.38;;;1.60;;
50757;SDS011;36732;47.980;11.652;2023-04-15T00:30:46;2.25;;;1.38;;
50757;SDS011;36732;47.980;11.652;2023-04-15T00:33:12;2.63;;;1.58;;
50757;SDS011;36732;47.980;11.652;2023-04-15T00:35:38;3.22;;;1.55;;
50757;SDS011;36732;47.980;11.652;2023-04-15T00:38:05;3.83;;;1.50;;
50757;SDS011;36732;47.980;11.652;2023-04-15T00:40:32;3.05;;;1.27;;
50757;SDS011;36732;47.980;11.652;2023-04-15T00:42:58;2.75;;;1.75;;
50757;SDS011;36732;47.980;11.652;2023-04-15T00:45:24;1.98;;;1.60;;
50757;SDS011;36732;47.980;11.652;2023-04-15T00:47:52;2.40;;;1.38;;
50757;SDS011;36732;47.980;11.652;2023-04-15T00:50:17;3.47;;;1.83;;
50757;SDS011;36732;47.980;11.652;2023-04-15T00:52:43;2.92;;;1.52;;
50757;SDS011;36732;47.980;11.652;2023-04-15T00:55:09;1.83;;;1.35;;
50757;SDS011;36732;47.980;11.652;2023-04-15T00:57:35;3.63;;;1.58;;
50757;SDS011;36732;47.980;11.652;2023-04-15T01:00:02;1.75;;;1.10;;
50757;SDS011;36732;47.980;11.652;2023-04-15T01:02:29;1.95;;;1.35;;
50757;SDS011;36732;47.980;11.652;2023-04-15T01:04:56;2.97;;;1.65;;
50757;SDS011;36732;47.980;11.652;2023-04-15T01:07:22;2.55;;;1.60;;
50757;SDS011;36732;47.980;11.652;2023-04-15T01:09:47;3.03;;;1.50;;
50757;SDS011;36732;47.980;11.652;2023-04-15T01:12:14;2.72;;;1.40;;
50757;SDS011;36732;47.980;11.652;2023-04-15T01:14:41;3.72;;;1.70;;
50757;SDS011;36732;47.980;11.652;2023-04-15T01:17:07;4.15;;;1.80;;
50757;SDS011;36732;47.980;11.652;2023-04-15T01:19:32;2.40;;;1.38;;
50757;SDS011;36732;47.980;11.652;2023-04-15T01:22:01;6.40;;;1.90;;
50757;SDS011;36732;47.980;11.652;2023-04-15T01:24:27;2.42;;;1.45;;
50757;SDS011;36732;47.980;11.652;2023-04-15T01:26:56;1.42;;;1.27;;
50757;SDS011;36732;47.980;11.652;2023-04-15T01:29:22;2.10;;;1.33;;
50757;SDS011;36732;47.980;11.652;2023-04-15T01:31:51;3.05;;;1.88;;
50757;SDS011;36732;47.980;11.652;2023-04-15T01:34:19;2.55;;;1.40;;
50757;SDS011;36732;47.980;11.652;2023-04-15T01:36:45;2.35;;;1.50;;
50757;SDS011;36732;47.980;11.652;2023-04-15T01:39:11;4.20;;;1.63;;
50757;SDS011;36732;47.980;11.652;2023-04-15T01:41:37;2.13;;;1.40;;
50757;SDS011;36732;47.980;11.652;2023-04-15T01:44:04;1.42;;;1.33;;
50757;SDS011;36732;47.980;11.652;2023-04-15T01:46:31;3.78;;;1.60;;
50757;SDS011;36732;47.980;11.652;2023-04-15T01:48:56;3.65;;;1.67;;
50757;SDS011;36732;47.980;11.652;2023-04-15T01:51:22;2.25;;;1.52;;
50757;SDS011;36732;47.980;11.652;2023-04-15T01:53:48;3.05;;;1.60;;
50757;SDS011;36732;47.980;11.652;2023-04-15T01:56:14;3.75;;;1.67;;
50757;SDS011;36732;47.980;11.652;2023-04-15T01:58:39;3.28;;;1.52;;
50757;SDS011;36732;47.980;11.652;2023-04-15T02:01:05;2.22;;;1.63;;
50757;SDS011;36732;47.980;11.652;2023-04-15T02:03:31;3.83;;;1.65;;
50757;SDS011;36732;47.980;11.652;2023-04-15T02:05:57;2.40;;;1.55;;
50757;SDS011;36732;47.980;11.652;2023-04-15T02:08:23;3.25;;;1.60;;
50757;SDS011;36732;47.980;11.652;2023-04-15T02:10:49;2.47;;;1.52;;
50757;SDS011;36732;47.980;11.652;2023-04-15T02:13:14;2.58;;;1.60;;
50757;SDS011;36732;47.980;11.652;2023-04-15T02:15:45;2.38;;;1.48;;
50757;SDS011;36732;47.980;11.652;2023-04-15T02:18:15;1.52;;;1.38;;
50757;SDS011;36732;47.980;11.652;2023-04-15T02:20:41;1.67;;;1.40;;
50757;SDS011;36732;47.980;11.652;2023-04-15T02:23:07;1.85;;;1.63;;
50757;SDS011;36732;47.980;11.652;2023-04-15T02:25:33;2.40;;;1.30;;
50757;SDS011;36732;47.980;11.652;2023-04-15T02:27:59;2.55;;;1.50;;
50757;SDS011;36732;47.980;11.652;2023-04-15T02:30:25;2.47;;;1.33;;
50757;SDS011;36732;47.980;11.652;2023-04-15T02:32:51;2.45;;;1.50;;
50757;SDS011;36732;47.980;11.652;2023-04-15T02:35:16;2.38;;;1.50;;
50757;SDS011;36732;47.980;11.652;2023-04-15T02:37:45;2.33;;;1.40;;
50757;SDS011;36732;47.980;11.652;2023-04-15T02:40:11;2.92;;;1.48;;
50757;SDS011;36732;47.980;11.652;2023-04-15T02:42:38;3.28;;;1.60;;
50757;SDS011;36732;47.980;11.652;2023-04-15T02:45:04;2.83;;;1.60;;
50757;SDS011;36732;47.980;11.652;2023-04-15T02:47:31;4.05;;;1.40;;
50757;SDS011;36732;47.980;11.652;2023-04-15T02:49:58;2.78;;;1.27;;
50757;SDS011;36732;47.980;11.652;2023-04-15T02:52:25;4.60;;;1.65;;
50757;SDS011;36732;47.980;11.652;2023-04-15T02:54:51;2.53;;;1.50;;
50757;SDS011;36732;47.980;11.652;2023-04-15T02:57:21;4.47;;;1.60;;
50757;SDS011;36732;47.980;11.652;2023-04-15T02:59:47;3.25;;;1.65;;
50757;SDS011;36732;47.980;11.652;2023-04-15T03:02:12;2.67;;;1.50;;
50757;SDS011;36732;47.980;11.652;2023-04-15T03:04:38;5.28;;;1.50;;
50757;SDS011;36732;47.980;11.652;2023-04-15T03:07:04;3.28;;;1.70;;
50757;SDS011;36732;47.980;11.652;2023-04-15T03:09:30;4.25;;;1.65;;
50757;SDS011;36732;47.980;11.652;2023-04-15T03:11:56;2.33;;;1.45;;
50757;SDS011;36732;47.980;11.652;2023-04-15T03:14:21;1.75;;;1.13;;
50757;SDS011;36732;47.980;11.652;2023-04-15T03:16:47;2.33;;;1.25;;
50757;SDS011;36732;47.980;11.652;2023-04-15T03:19:14;1.27;;;0.77;;
50757;SDS011;36732;47.980;11.652;2023-04-15T03:21:40;1.83;;;1.42;;
50757;SDS011;36732;47.980;11.652;2023-04-15T03:24:06;1.48;;;1.38;;
50757;SDS011;36732;47.980;11.652;2023-04-15T03:26:31;4.20;;;1.58;;
50757;SDS011;36732;47.980;11.652;2023-04-15T03:28:57;2.35;;;1.30;;
50757;SDS011;36732;47.980;11.652;2023-04-15T03:31:23;4.15;;;1.63;;
50757;SDS011;36732;47.980;11.652;2023-04-15T03:33:49;2.83;;;1.70;;
50757;SDS011;36732;47.980;11.652;2023-04-15T03:36:14;2.65;;;1.55;;
50757;SDS011;36732;47.980;11.652;2023-04-15T03:38:40;2.42;;;1.23;;
50757;SDS011;36732;47.980;11.652;2023-04-15T03:41:07;2.10;;;1.30;;
50757;SDS011;36732;47.980;11.652;2023-04-15T03:43:33;3.25;;;1.50;;
50757;SDS011;36732;47.980;11.652;2023-04-15T03:45:59;3.28;;;1.20;;
50757;SDS011;36732;47.980;11.652;2023-04-15T03:48:25;2.58;;;1.10;;
50757;SDS011;36732;47.980;11.652;2023-04-15T03:50:51;2.22;;;1.30;;
50757;SDS011;36732;47.980;11.652;2023-04-15T03:53:17;2.75;;;1.50;;
50757;SDS011;36732;47.980;11.652;2023-04-15T03:55:42;2.75;;;1.50;;
50757;SDS011;36732;47.980;11.652;2023-04-15T03:58:08;2.40;;;1.20;;
50757;SDS011;36732;47.980;11.652;2023-04-15T04:00:36;1.92;;;1.17;;
50757;SDS011;36732;47.980;11.652;2023-04-15T04:03:06;2.63;;;1.40;;
50757;SDS011;36732;47.980;11.652;2023-04-15T04:05:32;2.95;;;1.48;;
50757;SDS011;36732;47.980;11.652;2023-04-15T04:07:57;3.78;;;1.45;;
50757;SDS011;36732;47.980;11.652;2023-04-15T04:10:23;3.40;;;1.40;;
50757;SDS011;36732;47.980;11.652;2023-04-15T04:12:49;2.97;;;1.55;;
50757;SDS011;36732;47.980;11.652;2023-04-15T04:15:15;2.38;;;1.25;;
50757;SDS011;36732;47.980;11.652;2023-04-15T04:17:41;2.15;;;1.17;;
50757;SDS011;36732;47.980;11.652;2023-04-15T04:20:06;2.67;;;1.17;;
50757;SDS011;36732;47.980;11.652;2023-04-15T04:22:39;4.10;;;1.27;;
50757;SDS011;36732;47.980;11.652;2023-04-15T04:25:05;3.33;;;1.35;;
50757;SDS011;36732;47.980;11.652;2023-04-15T04:27:35;1.80;;;1.13;;
50757;SDS011;36732;47.980;11.652;2023-04-15T04:30:01;1.45;;;1.17;;
50757;SDS011;36732;47.980;11.652;2023-04-15T04:32:26;5.53;;;1.42;;
50757;SDS011;36732;47.980;11.652;2023-04-15T04:34:52;2.08;;;1.00;;
50757;SDS011;36732;47.980;11.652;2023-04-15T04:37:18;3.05;;;1.67;;
50757;SDS011;36732;47.980;11.652;2023-04-15T04:39:43;4.68;;;1.80;;
50757;SDS011;36732;47.980;11.652;2023-04-15T04:42:09;2.28;;;1.20;;
50757;SDS011;36732;47.980;11.652;2023-04-15T04:44:35;2.92;;;1.52;;
50757;SDS011;36732;47.980;11.652;2023-04-15T04:47:01;1.70;;;0.90;;
50757;SDS011;36732;47.980;11.652;2023-04-15T04:49:26;3.67;;;1.42;;
50757;SDS011;36732;47.980;11.652;2023-04-15T04:51:52;2.25;;;1.83;;
50757;SDS011;36732;47.980;11.652;2023-04-15T04:54:18;4.05;;;2.53;;
50757;SDS011;36732;47.980;11.652;2023-04-15T04:56:45;3.55;;;2.55;;
50757;SDS011;36732;47.980;11.652;2023-04-15T04:59:11;3.03;;;1.65;;
50757;SDS011;36732;47.980;11.652;2023-04-15T05:01:37;3.50;;;1.85;;
50757;SDS011;36732;47.980;11.652;2023-04-15T05:04:02;5.47;;;1.40;;
50757;SDS011;36732;47.980;11.652;2023-04-15T05:06:29;2.70;;;1.20;;
50757;SDS011;36732;47.980;11.652;2023-04-15T05:08:55;2.40;;;1.63;;
50757;SDS011;36732;47.980;11.652;2023-04-15T05:11:20;2.38;;;1.33;;
50757;SDS011;36732;47.980;11.652;2023-04-15T05:13:46;1.30;;;0.90;;
50757;SDS011;36732;47.980;11.652;2023-04-15T05:16:12;2.40;;;1.20;;
50757;SDS011;36732;47.980;11.652;2023-04-15T05:18:37;2.88;;;1.25;;
50757;SDS011;36732;47.980;11.652;2023-04-15T05:21:03;1.48;;;1.23;;
50757;SDS011;36732;47.980;11.652;2023-04-15T05:23:29;2.35;;;1.23;;
50757;SDS011;36732;47.980;11.652;2023-04-15T05:25:55;3.47;;;1.13;;
50757;SDS011;36732;47.980;11.652;2023-04-15T05:28:20;2.30;;;1.60;;
50757;SDS011;36732;47.980;11.652;2023-04-15T05:30:46;3.22;;;2.20;;
50757;SDS011;36732;47.980;11.652;2023-04-15T05:33:12;2.42;;;1.70;;
50757;SDS011;36732;47.980;11.652;2023-04-15T05:35:37;3.38;;;1.20;;
50757;SDS011;36732;47.980;11.652;2023-04-15T05:38:03;1.95;;;1.15;;
50757;SDS011;36732;47.980;11.652;2023-04-15T05:40:29;3.38;;;1.30;;
50757;SDS011;36732;47.980;11.652;2023-04-15T05:42:55;2.15;;;1.30;;
50757;SDS011;36732;47.980;11.652;2023-04-15T05:45:21;3.67;;;1.70;;
50757;SDS011;36732;47.980;11.652;2023-04-15T05:47:46;1.92;;;1.15;;
50757;SDS011;36732;47.980;11.652;2023-04-15T05:50:14;2.72;;;1.25;;
50757;SDS011;36732;47.980;11.652;2023-04-15T05:52:40;2.83;;;1.40;;
50757;SDS011;36732;47.980;11.652;2023-04-15T05:55:06;5.80;;;1.25;;
50757;SDS011;36732;47.980;11.652;2023-04-15T05:57:32;2.60;;;1.10;;
50757;SDS011;36732;47.980;11.652;2023-04-15T05:59:58;3.92;;;1.10;;
50757;SDS011;36732;47.980;11.652;2023-04-15T06:02:23;1.17;;;0.88;;
50757;SDS011;36732;47.980;11.652;2023-04-15T06:04:50;2.08;;;0.90;;
50757;SDS011;36732;47.980;11.652;2023-04-15T06:07:16;2.55;;;0.90;;
50757;SDS011;36732;47.980;11.652;2023-04-15T06:09:41;3.45;;;1.20;;
50757;SDS011;36732;47.980;11.652;2023-04-15T06:12:08;2.03;;;1.40;;
50757;SDS011;36732;47.980;11.652;2023-04-15T06:14:36;3.97;;;1.60;;
50757;SDS011;36732;47.980;11.652;2023-04-15T06:17:03;3.83;;;1.38;;
50757;SDS011;36732;47.980;11.652;2023-04-15T06:19:29;2.17;;;1.15;;
50757;SDS011;36732;47.980;11.652;2023-04-15T06:21:55;3.10;;;1.13;;
50757;SDS011;36732;47.980;11.652;2023-04-15T06:24:20;2.08;;;1.30;;
50757;SDS011;36732;47.980;11.652;2023-04-15T06:26:46;1.60;;;1.00;;
50757;SDS011;36732;47.980;11.652;2023-04-15T06:29:12;2.67;;;1.33;;
50757;SDS011;36732;47.980;11.652;2023-04-15T06:31:38;3.35;;;1.23;;
50757;SDS011;36732;47.980;11.652;2023-04-15T06:34:03;3.00;;;1.20;;
50757;SDS011;36732;47.980;11.652;2023-04-15T06:36:29;1.75;;;0.90;;
50757;SDS011;36732;47.980;11.652;2023-04-15T06:38:56;1.30;;;0.80;;
50757;SDS011;36732;47.980;11.652;2023-04-15T06:41:22;1.95;;;1.30;;
50757;SDS011;36732;47.980;11.652;2023-04-15T06:43:47;3.60;;;1.10;;
50757;SDS011;36732;47.980;11.652;2023-04-15T06:46:13;3.40;;;1.35;;
50757;SDS011;36732;47.980;11.652;2023-04-15T06:48:39;1.45;;;1.00;;
50757;SDS011;36732;47.980;11.652;2023-04-15T06:51:05;2.60;;;1.02;;
50757;SDS011;36732;47.980;11.652;2023-04-15T06:53:30;5.68;;;1.50;;
50757;SDS011;36732;47.980;11.652;2023-04-15T06:55:56;3.40;;;1.83;;
50757;SDS011;36732;47.980;11.652;2023-04-15T06:58:22;2.20;;;1.38;;
50757;SDS011;36732;47.980;11.652;2023-04-15T07:00:48;2.72;;;1.25;;
50757;SDS011;36732;47.980;11.652;2023-04-15T07:03:13;5.65;;;1.08;;
50757;SDS011;36732;47.980;11.652;2023-04-15T07:05:39;1.40;;;0.85;;
50757;SDS011;36732;47.980;11.652;2023-04-15T07:08:05;3.10;;;1.38;;
50757;SDS011;36732;47.980;11.652;2023-04-15T07:10:32;2.85;;;1.05;;
50757;SDS011;36732;47.980;11.652;2023-04-15T07:12:58;2.58;;;1.13;;
50757;SDS011;36732;47.980;11.652;2023-04-15T07:15:25;1.73;;;0.80;;
50757;SDS011;36732;47.980;11.652;2023-04-15T07:17:51;3.13;;;1.20;;
50757;SDS011;36732;47.980;11.652;2023-04-15T07:20:17;1.35;;;0.82;;
50757;SDS011;36732;47.980;11.652;2023-04-15T07:22:43;2.05;;;1.10;;
50757;SDS011;36732;47.980;11.652;2023-04-15T07:25:08;2.05;;;0.93;;
50757;SDS011;36732;47.980;11.652;2023-04-15T07:27:34;1.50;;;1.17;;
50757;SDS011;36732;47.980;11.652;2023-04-15T07:30:00;3.55;;;1.05;;
50757;SDS011;36732;47.980;11.652;2023-04-15T07:32:26;3.30;;;1.10;;
50757;SDS011;36732;47.980;11.652;2023-04-15T07:34:52;5.15;;;1.20;;
50757;SDS011;36732;47.980;11.652;2023-04-15T07:37:18;2.67;;;1.27;;
50757;SDS011;36732;47.980;11.652;2023-04-15T07:39:44;3.58;;;1.67;;
50757;SDS011;36732;47.980;11.652;2023-04-15T07:42:10;1.38;;;1.20;;
50757;SDS011;36732;47.980;11.652;2023-04-15T07:44:36;2.20;;;1.40;;
50757;SDS011;36732;47.980;11.652;2023-04-15T07:47:02;4.35;;;1.75;;
50757;SDS011;36732;47.980;11.652;2023-04-15T07:49:28;2.08;;;1.25;;
50757;SDS011;36732;47.980;11.652;2023-04-15T07:51:54;1.65;;;0.90;;
50757;SDS011;36732;47.980;11.652;2023-04-15T07:54:21;1.75;;;0.88;;
50757;SDS011;36732;47.980;11.652;2023-04-15T07:56:47;2.17;;;1.00;;
50757;SDS011;36732;47.980;11.652;2023-04-15T07:59:12;3.70;;;1.08;;
50757;SDS011;36732;47.980;11.652;2023-04-15T08:01:41;5.32;;;1.60;;
50757;SDS011;36732;47.980;11.652;2023-04-15T08:04:07;3.10;;;1.10;;
50757;SDS011;36732;47.980;11.652;2023-04-15T08:06:34;2.40;;;1.25;;
50757;SDS011;36732;47.980;11.652;2023-04-15T08:09:00;1.95;;;0.75;;
50757;SDS011;36732;47.980;11.652;2023-04-15T08:11:26;1.35;;;0.95;;
50757;SDS011;36732;47.980;11.652;2023-04-15T08:13:52;5.38;;;1.33;;
50757;SDS011;36732;47.980;11.652;2023-04-15T08:16:21;1.77;;;1.00;;
50757;SDS011;36732;47.980;11.652;2023-04-15T08:18:50;2.40;;;0.95;;
50757;SDS011;36732;47.980;11.652;2023-04-15T08:21:18;2.30;;;1.10;;
50757;SDS011;36732;47.980;11.652;2023-04-15T08:23:45;3.70;;;0.95;;
50757;SDS011;36732;47.980;11.652;2023-04-15T08:26:14;3.40;;;1.10;;
50757;SDS011;36732;47.980;11.652;2023-04-15T08:28:41;2.67;;;1.17;;
50757;SDS011;36732;47.980;11.652;2023-04-15T08:31:08;4.38;;;1.20;;
50757;SDS011;36732;47.980;11.652;2023-04-15T08:33:33;2.08;;;0.95;;
50757;SDS011;36732;47.980;11.652;2023-04-15T08:35:59;2.13;;;1.10;;
50757;SDS011;36732;47.980;11.652;2023-04-15T08:38:25;1.17;;;0.85;;
50757;SDS011;36732;47.980;11.652;2023-04-15T08:40:51;2.53;;;0.82;;
50757;SDS011;36732;47.980;11.652;2023-04-15T08:43:25;1.67;;;1.05;;
50757;SDS011;36732;47.980;11.652;2023-04-15T08:45:54;2.03;;;0.80;;
50757;SDS011;36732;47.980;11.652;2023-04-15T08:48:23;1.65;;;0.90;;
50757;SDS011;36732;47.980;11.652;2023-04-15T08:50:52;2.50;;;1.23;;
50757;SDS011;36732;47.980;11.652;2023-04-15T08:53:18;3.13;;;1.00;;
50757;SDS011;36732;47.980;11.652;2023-04-15T08:55:46;2.75;;;1.10;;
50757;SDS011;36732;47.980;11.652;2023-04-15T08:58:16;2.33;;;0.95;;
50757;SDS011;36732;47.980;11.652;2023-04-15T09:00:43;1.73;;;1.27;;
50757;SDS011;36732;47.980;11.652;2023-04-15T09:03:09;3.40;;;1.70;;
50757;SDS011;36732;47.980;11.652;2023-04-15T09:05:36;2.58;;;1.63;;
50757;SDS011;36732;47.980;11.652;2023-04-15T09:08:02;2.65;;;1.60;;
50757;SDS011;36732;47.980;11.652;2023-04-15T09:10:30;2.55;;;1.52;;
50757;SDS011;36732;47.980;11.652;2023-04-15T09:12:56;3.80;;;1.67;;
50757;SDS011;36732;47.980;11.652;2023-04-15T09:15:25;2.83;;;1.63;;
50757;SDS011;36732;47.980;11.652;2023-04-15T09:17:54;3.25;;;1.50;;
50757;SDS011;36732;47.980;11.652;2023-04-15T09:20:20;3.65;;;1.52;;
50757;SDS011;36732;47.980;11.652;2023-04-15T09:22:47;2.72;;;1.50;;
50757;SDS011;36732;47.980;11.652;2023-04-15T09:27:56;2.35;;;1.90;;
50757;SDS011;36732;47.980;11.652;2023-04-15T09:30:25;1.90;;;1.42;;
50757;SDS011;36732;47.980;11.652;2023-04-15T09:32:53;1.95;;;1.20;;
50757;SDS011;36732;47.980;11.652;2023-04-15T09:35:22;4.55;;;1.50;;
50757;SDS011;36732;47.980;11.652;2023-04-15T09:37:49;2.00;;;1.60;;
50757;SDS011;36732;47.980;11.652;2023-04-15T09:40:32;3.22;;;1.80;;
50757;SDS011;36732;47.980;11.652;2023-04-15T09:43:03;2.67;;;1.73;;
50757;SDS011;36732;47.980;11.652;2023-04-15T09:45:30;3.00;;;1.95;;
50757;SDS011;36732;47.980;11.652;2023-04-15T09:47:58;3.17;;;1.73;;
50757;SDS011;36732;47.980;11.652;2023-04-15T09:50:39;1.67;;;1.25;;
50757;SDS011;36732;47.980;11.652;2023-04-15T09:53:10;17.13;;;2.05;;
50757;SDS011;36732;47.980;11.652;2023-04-15T09:55:43;2.97;;;1.75;;
50757;SDS011;36732;47.980;11.652;2023-04-15T09:58:20;2.25;;;1.63;;
50757;SDS011;36732;47.980;11.652;2023-04-15T10:03:22;2.97;;;1.90;;
50757;SDS011;36732;47.980;11.652;2023-04-15T10:05:51;2.42;;;1.50;;
50757;SDS011;36732;47.980;11.652;2023-04-15T10:08:19;5.10;;;1.70;;
50757;SDS011;36732;47.980;11.652;2023-04-15T10:10:48;1.83;;;1.70;;
50757;SDS011;36732;47.980;11.652;2023-04-15T10:13:17;2.78;;;1.88;;
50757;SDS011;36732;47.980;11.652;2023-04-15T10:15:46;3.42;;;1.70;;
50757;SDS011;36732;47.980;11.652;2023-04-15T10:18:26;2.88;;;1.85;;
50757;SDS011;36732;47.980;11.652;2023-04-15T10:20:53;2.72;;;1.70;;
50757;SDS011;36732;47.980;11.652;2023-04-15T10:23:22;2.63;;;1.67;;
50757;SDS011;36732;47.980;11.652;2023-04-15T10:25:51;2.42;;;1.60;;
50757;SDS011;36732;47.980;11.652;2023-04-15T10:28:20;2.72;;;1.77;;
50757;SDS011;36732;47.980;11.652;2023-04-15T10:30:49;3.45;;;1.95;;
50757;SDS011;36732;47.980;11.652;2023-04-15T10:33:17;6.30;;;2.00;;
50757;SDS011;36732;47.980;11.652;2023-04-15T10:35:47;2.95;;;1.63;;
50757;SDS011;36732;47.980;11.652;2023-04-15T10:41:23;4.10;;;1.83;;
50757;SDS011;36732;47.980;11.652;2023-04-15T10:43:52;3.10;;;1.77;;
50757;SDS011;36732;47.980;11.652;2023-04-15T10:46:22;2.28;;;1.60;;
50757;SDS011;36732;47.980;11.652;2023-04-15T10:49:07;2.67;;;1.77;;
50757;SDS011;36732;47.980;11.652;2023-04-15T10:51:38;3.88;;;1.98;;
50757;SDS011;36732;47.980;11.652;2023-04-15T11:02:00;2.03;;;1.65;;
50757;SDS011;36732;47.980;11.652;2023-04-15T11:12:45;2.80;;;1.52;;
50757;SDS011;36732;47.980;11.652;2023-04-15T11:18:19;3.63;;;1.52;;
50757;SDS011;36732;47.980;11.652;2023-04-15T11:20:52;1.83;;;1.30;;
50757;SDS011;36732;47.980;11.652;2023-04-15T11:23:40;4.57;;;1.55;;
50757;SDS011;36732;47.980;11.652;2023-04-15T11:26:13;2.88;;;1.85;;
50757;SDS011;36732;47.980;11.652;2023-04-15T11:28:40;4.85;;;1.70;;
50757;SDS011;36732;47.980;11.652;2023-04-15T11:31:11;1.67;;;1.40;;
50757;SDS011;36732;47.980;11.652;2023-04-15T11:33:55;4.75;;;1.55;;
50757;SDS011;36732;47.980;11.652;2023-04-15T11:36:27;3.03;;;1.75;;
50757;SDS011;36732;47.980;11.652;2023-04-15T11:38:54;3.15;;;2.05;;
50757;SDS011;36732;47.980;11.652;2023-04-15T11:41:22;5.00;;;2.10;;
50757;SDS011;36732;47.980;11.652;2023-04-15T11:43:48;3.45;;;1.92;;
50757;SDS011;36732;47.980;11.652;2023-04-15T11:46:15;3.22;;;2.30;;
50757;SDS011;36732;47.980;11.652;2023-04-15T11:48:42;5.15;;;1.92;;
50757;SDS011;36732;47.980;11.652;2023-04-15T11:51:10;5.10;;;2.22;;
50757;SDS011;36732;47.980;11.652;2023-04-15T11:53:47;3.00;;;1.90;;
50757;SDS011;36732;47.980;11.652;2023-04-15T11:56:18;4.50;;;1.92;;
50757;SDS011;36732;47.980;11.652;2023-04-15T11:58:46;3.55;;;2.30;;
50757;SDS011;36732;47.980;11.652;2023-04-15T12:01:14;4.05;;;2.00;;
50757;SDS011;36732;47.980;11.652;2023-04-15T12:03:44;5.28;;;2.10;;
50757;SDS011;36732;47.980;11.652;2023-04-15T12:08:52;2.35;;;2.00;;
50757;SDS011;36732;47.980;11.652;2023-04-15T12:11:48;2.55;;;1.75;;
50757;SDS011;36732;47.980;11.652;2023-04-15T12:14:20;2.97;;;1.88;;
50757;SDS011;36732;47.980;11.652;2023-04-15T12:16:56;2.42;;;1.60;;
50757;SDS011;36732;47.980;11.652;2023-04-15T12:19:29;4.15;;;2.20;;
50757;SDS011;36732;47.980;11.652;2023-04-15T12:24:40;1.92;;;1.35;;
50757;SDS011;36732;47.980;11.652;2023-04-15T12:27:11;5.28;;;2.30;;
50757;SDS011;36732;47.980;11.652;2023-04-15T12:29:39;2.60;;;1.60;;
50757;SDS011;36732;47.980;11.652;2023-04-15T12:32:08;2.88;;;1.90;;
50757;SDS011;36732;47.980;11.652;2023-04-15T12:34:42;3.33;;;2.25;;
50757;SDS011;36732;47.980;11.652;2023-04-15T12:37:15;3.20;;;1.77;;
50757;SDS011;36732;47.980;11.652;2023-04-15T12:39:42;4.32;;;1.90;;
50757;SDS011;36732;47.980;11.652;2023-04-15T12:42:09;3.47;;;2.08;;
50757;SDS011;36732;47.980;11.652;2023-04-15T12:44:36;3.00;;;2.17;;
50757;SDS011;36732;47.980;11.652;2023-04-15T12:47:03;5.22;;;2.10;;
50757;SDS011;36732;47.980;11.652;2023-04-15T12:49:30;2.78;;;2.33;;
50757;SDS011;36732;47.980;11.652;2023-04-15T12:51:57;4.10;;;2.42;;
50757;SDS011;36732;47.980;11.652;2023-04-15T12:54:25;3.65;;;2.35;;
50757;SDS011;36732;47.980;11.652;2023-04-15T12:56:52;2.55;;;2.10;;
50757;SDS011;36732;47.980;11.652;2023-04-15T12:59:18;2.58;;;2.03;;
50757;SDS011;36732;47.980;11.652;2023-04-15T13:01:45;3.53;;;1.90;;
50757;SDS011;36732;47.980;11.652;2023-04-15T13:04:12;7.22;;;2.60;;
50757;SDS011;36732;47.980;11.652;2023-04-15T13:06:38;3.33;;;2.30;;
50757;SDS011;36732;47.980;11.652;2023-04-15T13:09:04;3.38;;;2.03;;
50757;SDS011;36732;47.980;11.652;2023-04-15T13:11:30;6.47;;;2.42;;
50757;SDS011;36732;47.980;11.652;2023-04-15T13:13:57;3.58;;;1.80;;
50757;SDS011;36732;47.980;11.652;2023-04-15T13:16:25;2.92;;;1.75;;
50757;SDS011;36732;47.980;11.652;2023-04-15T13:18:51;2.78;;;1.65;;
50757;SDS011;36732;47.980;11.652;2023-04-15T13:21:17;4.78;;;1.80;;
50757;SDS011;36732;47.980;11.652;2023-04-15T13:23:43;1.90;;;1.52;;
50757;SDS011;36732;47.980;11.652;2023-04-15T13:26:09;2.55;;;1.77;;
50757;SDS011;36732;47.980;11.652;2023-04-15T13:28:35;2.40;;;1.38;;
50757;SDS011;36732;47.980;11.652;2023-04-15T13:31:01;1.80;;;1.48;;
50757;SDS011;36732;47.980;11.652;2023-04-15T13:33:27;3.13;;;2.03;;
50757;SDS011;36732;47.980;11.652;2023-04-15T13:35:52;5.38;;;1.35;;
50757;SDS011;36732;47.980;11.652;2023-04-15T13:38:18;2.88;;;1.38;;
50757;SDS011;36732;47.980;11.652;2023-04-15T13:40:44;4.10;;;1.70;;
50757;SDS011;36732;47.980;11.652;2023-04-15T13:43:10;4.03;;;1.60;;
50757;SDS011;36732;47.980;11.652;2023-04-15T13:45:36;2.42;;;1.60;;
50757;SDS011;36732;47.980;11.652;2023-04-15T13:48:02;3.03;;;1.58;;
50757;SDS011;36732;47.980;11.652;2023-04-15T13:50:27;2.95;;;1.80;;
50757;SDS011;36732;47.980;11.652;2023-04-15T13:52:53;2.35;;;1.77;;
50757;SDS011;36732;47.980;11.652;2023-04-15T13:55:19;2.67;;;2.20;;
50757;SDS011;36732;47.980;11.652;2023-04-15T13:57:45;5.28;;;3.45;;
50757;SDS011;36732;47.980;11.652;2023-04-15T14:00:11;4.95;;;2.30;;
50757;SDS011;36732;47.980;11.652;2023-04-15T14:02:38;4.03;;;2.60;;
50757;SDS011;36732;47.980;11.652;2023-04-15T14:05:06;2.80;;;1.88;;
50757;SDS011;36732;47.980;11.652;2023-04-15T14:07:32;3.90;;;2.22;;
50757;SDS011;36732;47.980;11.652;2023-04-15T14:09:58;3.05;;;1.85;;
50757;SDS011;36732;47.980;11.652;2023-04-15T14:12:24;4.05;;;2.38;;
50757;SDS011;36732;47.980;11.652;2023-04-15T14:14:50;2.25;;;1.92;;
50757;SDS011;36732;47.980;11.652;2023-04-15T14:17:16;4.60;;;2.65;;
50757;SDS011;36732;47.980;11.652;2023-04-15T14:19:42;2.40;;;1.75;;
50757;SDS011;36732;47.980;11.652;2023-04-15T14:22:07;2.58;;;2.03;;
50757;SDS011;36732;47.980;11.652;2023-04-15T14:24:33;3.17;;;2.00;;
50757;SDS011;36732;47.980;11.652;2023-04-15T14:26:59;4.18;;;2.25;;
50757;SDS011;36732;47.980;11.652;2023-04-15T14:29:26;2.25;;;1.75;;
50757;SDS011;36732;47.980;11.652;2023-04-15T14:31:52;3.75;;;1.95;;
50757;SDS011;36732;47.980;11.652;2023-04-15T14:34:17;4.07;;;2.13;;
50757;SDS011;36732;47.980;11.652;2023-04-15T14:36:43;2.83;;;1.63;;
50757;SDS011;36732;47.980;11.652;2023-04-15T14:39:09;3.72;;;2.05;;
50757;SDS011;36732;47.980;11.652;2023-04-15T14:41:35;3.63;;;2.28;;
50757;SDS011;36732;47.980;11.652;2023-04-15T14:44:01;3.60;;;2.50;;
50757;SDS011;36732;47.980;11.652;2023-04-15T14:46:27;4.72;;;2.60;;
50757;SDS011;36732;47.980;11.652;2023-04-15T14:48:53;5.63;;;2.70;;
50757;SDS011;36732;47.980;11.652;2023-04-15T14:51:18;2.47;;;1.92;;
50757;SDS011;36732;47.980;11.652;2023-04-15T14:53:44;3.25;;;1.83;;
50757;SDS011;36732;47.980;11.652;2023-04-15T14:56:10;4.25;;;2.45;;
50757;SDS011;36732;47.980;11.652;2023-04-15T14:58:36;2.47;;;1.85;;
50757;SDS011;36732;47.980;11.652;2023-04-15T15:01:02;3.80;;;2.42;;
50757;SDS011;36732;47.980;11.652;2023-04-15T15:03:28;3.25;;;2.05;;
50757;SDS011;36732;47.980;11.652;2023-04-15T15:05:54;4.03;;;2.38;;